Time;durP1;ratioP1;P1;durP2;ratioP2;P2;SDS_P1;SDS_P2;PMS_P1;PMS_P2;Temp;Humidity;BMP_temperature;BMP_pressure;BME280_temperature;BME280_humidity;BME280_pressure;Samples;Min_cycle;Max_cycle;Signal;HPM_P1;HPM_P2
2023/12/04 00:01:51;;;;;;;8.65;5.13;;;7.60;99.90;;;;;;5075391;28;20043;-71
2023/12/04 00:04:18;;;;;;;9.48;4.63;;;7.50;99.90;;;;;;5075220;28;20075;-71
2023/12/04 00:06:45;;;;;;;10.32;4.80;;;7.50;99.90;;;;;;5073752;28;20048;-71
2023/12/04 00:09:11;;;;;;;9.82;4.82;;;7.50;99.90;;;;;;5075107;28;20081;-71
2023/12/04 00:11:38;;;;;;;14.25;5.70;;;7.50;99.90;;;;;;5075200;28;20120;-71
2023/12/04 00:14:05;;;;;;;9.10;4.72;;;7.40;99.90;;;;;;5086409;28;20066;-71
2023/12/04 00:16:32;;;;;;;8.98;5.22;;;7.40;99.90;;;;;;5095244;28;20040;-71
2023/12/04 00:18:58;;;;;;;11.70;5.07;;;7.40;99.90;;;;;;5095206;28;20036;-71
2023/12/04 00:21:25;;;;;;;11.35;5.30;;;7.30;99.90;;;;;;5094734;28;20046;-71
2023/12/04 00:23:52;;;;;;;12.50;5.53;;;7.30;99.90;;;;;;5095333;28;20036;-71
2023/12/04 00:26:19;;;;;;;11.68;5.40;;;7.20;99.90;;;;;;5094837;28;20153;-72
2023/12/04 00:28:46;;;;;;;10.23;5.15;;;7.20;99.90;;;;;;5095019;28;20032;-72
2023/12/04 00:31:13;;;;;;;10.93;5.13;;;7.20;99.90;;;;;;5095061;28;20063;-72
2023/12/04 00:33:40;;;;;;;16.08;6.13;;;7.20;99.90;;;;;;5095302;28;20101;-72
2023/12/04 00:36:07;;;;;;;9.40;5.07;;;7.10;99.90;;;;;;5094764;28;20040;-71
2023/12/04 00:38:33;;;;;;;10.55;5.03;;;7.20;99.90;;;;;;5094886;28;20047;-72
2023/12/04 00:41:00;;;;;;;10.45;4.90;;;7.10;99.90;;;;;;5094503;28;20050;-72
2023/12/04 00:43:27;;;;;;;11.35;5.28;;;7.10;99.90;;;;;;5095140;28;20044;-71
2023/12/04 00:45:54;;;;;;;9.98;4.82;;;7.00;99.90;;;;;;5093715;28;20510;-71
2023/12/04 00:48:21;;;;;;;9.50;4.70;;;7.00;99.90;;;;;;5094636;28;20101;-72
2023/12/04 00:50:48;;;;;;;10.52;4.97;;;7.00;99.90;;;;;;5094704;28;20044;-72
2023/12/04 00:53:14;;;;;;;9.70;4.43;;;7.00;99.90;;;;;;5094821;28;20032;-71
2023/12/04 00:55:41;;;;;;;9.50;4.00;;;6.90;99.90;;;;;;5094770;28;20365;-71
2023/12/04 00:58:08;;;;;;;8.90;4.00;;;6.90;99.90;;;;;;5094571;28;20466;-71
2023/12/04 01:00:35;;;;;;;11.68;4.55;;;6.90;99.90;;;;;;5094347;28;20044;-71
2023/12/04 01:03:01;;;;;;;10.93;4.20;;;6.90;99.90;;;;;;5094517;28;20059;-71
2023/12/04 01:05:28;;;;;;;8.15;4.25;;;6.90;99.90;;;;;;5094623;28;20377;-71
2023/12/04 01:07:55;;;;;;;7.35;4.32;;;6.90;99.90;;;;;;5094267;28;20043;-71
2023/12/04 01:10:22;;;;;;;11.55;4.57;;;6.90;99.90;;;;;;5094082;28;20044;-66
2023/12/04 01:12:49;;;;;;;9.40;4.22;;;6.90;99.90;;;;;;5094103;28;20057;-65
2023/12/04 01:15:16;;;;;;;8.52;3.90;;;6.80;99.90;;;;;;5092959;28;20036;-66
2023/12/04 01:17:43;;;;;;;11.07;4.20;;;6.80;99.90;;;;;;5093878;28;20047;-66
2023/12/04 01:20:10;;;;;;;6.38;3.70;;;6.80;99.90;;;;;;5094309;28;20047;-66
2023/12/04 01:22:36;;;;;;;7.10;4.05;;;6.80;99.90;;;;;;5093185;28;20520;-66
2023/12/04 01:25:03;;;;;;;8.73;3.85;;;6.80;99.90;;;;;;5093215;28;20058;-66
2023/12/04 01:27:30;;;;;;;9.32;3.70;;;6.80;99.90;;;;;;5094284;28;20123;-66
2023/12/04 01:29:57;;;;;;;7.78;3.53;;;6.80;99.90;;;;;;5094286;28;20036;-66
2023/12/04 01:32:24;;;;;;;8.20;3.75;;;6.70;99.90;;;;;;5093433;28;20039;-66
2023/12/04 01:34:51;;;;;;;10.75;3.75;;;6.70;99.90;;;;;;5093019;28;20067;-66
2023/12/04 01:37:18;;;;;;;7.88;3.58;;;6.70;99.90;;;;;;5094002;28;20051;-66
2023/12/04 01:39:44;;;;;;;8.13;3.78;;;6.70;99.90;;;;;;5093707;28;20054;-66
2023/12/04 01:42:11;;;;;;;8.75;3.30;;;6.70;99.90;;;;;;5092663;28;20052;-66
2023/12/04 01:44:38;;;;;;;7.72;3.70;;;6.70;99.90;;;;;;5094038;28;20042;-64
2023/12/04 01:47:07;;;;;;;8.27;3.50;;;6.70;99.90;;;;;;5093947;28;20056;-65
2023/12/04 01:49:33;;;;;;;8.32;3.00;;;6.70;99.90;;;;;;5092752;28;20401;-64
2023/12/04 01:52:00;;;;;;;9.25;3.50;;;6.60;99.90;;;;;;5093465;28;20068;-64
2023/12/04 01:54:27;;;;;;;9.70;3.05;;;6.60;99.90;;;;;;5093440;28;20040;-64
2023/12/04 01:56:54;;;;;;;7.72;3.10;;;6.60;99.90;;;;;;5093475;28;20476;-64
2023/12/04 01:59:21;;;;;;;9.18;3.35;;;6.60;99.90;;;;;;5092131;28;20059;-64
2023/12/04 02:01:47;;;;;;;7.30;3.35;;;6.60;99.90;;;;;;5093436;28;20036;-64
2023/12/04 02:04:14;;;;;;;10.98;3.65;;;6.60;99.90;;;;;;5092653;28;20044;-64
2023/12/04 02:06:41;;;;;;;8.80;3.15;;;6.50;99.90;;;;;;5093495;28;20040;-64
2023/12/04 02:09:12;;;;;;;11.98;3.10;;;6.50;99.90;;;;;;5093572;28;20040;-64
2023/12/04 02:11:39;;;;;;;7.10;3.40;;;6.50;99.90;;;;;;5093869;28;20032;-64
2023/12/04 02:14:05;;;;;;;6.55;2.90;;;6.50;99.90;;;;;;5093517;28;20036;-64
2023/12/04 02:16:32;;;;;;;8.32;2.92;;;6.50;99.90;;;;;;5092423;28;20040;-64
2023/12/04 02:18:59;;;;;;;7.22;3.00;;;6.50;99.90;;;;;;5093358;28;20500;-64
2023/12/04 02:21:26;;;;;;;7.68;3.50;;;6.50;99.90;;;;;;5093569;28;20040;-64
2023/12/04 02:23:53;;;;;;;11.82;3.00;;;6.40;99.90;;;;;;5093444;28;20048;-64
2023/12/04 02:26:20;;;;;;;10.05;3.05;;;6.40;99.90;;;;;;5093783;28;20109;-64
2023/12/04 02:28:46;;;;;;;8.57;3.20;;;6.40;99.90;;;;;;5092302;28;20103;-64
2023/12/04 02:31:13;;;;;;;7.78;2.30;;;6.40;99.90;;;;;;5093633;28;20043;-64
2023/12/04 02:33:40;;;;;;;7.00;2.47;;;6.40;99.90;;;;;;5093491;28;20116;-64
2023/12/04 02:36:07;;;;;;;6.97;2.70;;;6.40;99.90;;;;;;5091844;28;20055;-64
2023/12/04 02:38:33;;;;;;;8.05;2.42;;;6.40;99.90;;;;;;5093238;28;20040;-64
2023/12/04 02:41:00;;;;;;;9.00;2.65;;;6.40;99.90;;;;;;5092870;28;20048;-64
2023/12/04 02:43:27;;;;;;;7.53;2.72;;;6.40;99.90;;;;;;5094968;28;20040;-64
2023/12/04 02:45:54;;;;;;;8.27;2.55;;;6.40;99.90;;;;;;5097091;28;20521;-64
2023/12/04 02:48:20;;;;;;;6.72;2.83;;;6.40;99.90;;;;;;5096824;28;20062;-64
2023/12/04 02:50:47;;;;;;;5.55;2.00;;;6.40;99.90;;;;;;5096811;28;20481;-65
2023/12/04 02:53:14;;;;;;;3.50;1.95;;;6.40;99.90;;;;;;5096962;28;20036;-65
2023/12/04 02:55:41;;;;;;;5.53;2.05;;;6.40;99.90;;;;;;5096764;28;20130;-65
2023/12/04 02:58:08;;;;;;;5.80;2.00;;;6.40;99.90;;;;;;5096706;28;20052;-65
2023/12/04 03:00:35;;;;;;;4.45;1.73;;;6.50;99.90;;;;;;5095688;28;20048;-64
2023/12/04 03:03:01;;;;;;;5.30;2.22;;;6.40;99.90;;;;;;5096449;28;20036;-65
2023/12/04 03:05:28;;;;;;;6.90;2.05;;;6.40;99.90;;;;;;5096482;28;20070;-65
2023/12/04 03:07:56;;;;;;;4.70;2.10;;;6.50;99.90;;;;;;5096717;28;20408;-65
2023/12/04 03:10:23;;;;;;;3.38;1.60;;;6.40;99.90;;;;;;5096828;28;20126;-65
2023/12/04 03:12:50;;;;;;;5.75;1.90;;;6.40;99.90;;;;;;5096930;28;20396;-64
2023/12/04 03:15:17;;;;;;;5.43;1.90;;;6.40;99.90;;;;;;5096527;28;20374;-65
2023/12/04 03:17:43;;;;;;;6.00;2.00;;;6.50;99.90;;;;;;5095255;28;20040;-65
2023/12/04 03:20:10;;;;;;;7.35;1.80;;;6.50;99.90;;;;;;5096321;28;20047;-65
2023/12/04 03:22:37;;;;;;;5.35;1.77;;;6.50;99.90;;;;;;5095174;28;20032;-64
2023/12/04 03:25:04;;;;;;;5.13;1.90;;;6.50;99.90;;;;;;5096083;28;20480;-64
2023/12/04 03:27:31;;;;;;;5.97;2.35;;;6.50;99.90;;;;;;5096547;28;20036;-64
2023/12/04 03:29:57;;;;;;;4.63;1.70;;;6.50;99.90;;;;;;5096176;28;20071;-64
2023/12/04 03:32:24;;;;;;;4.65;1.70;;;6.50;99.90;;;;;;5095203;28;20070;-65
2023/12/04 03:34:51;;;;;;;6.57;1.77;;;6.50;99.90;;;;;;5096679;28;20361;-65
2023/12/04 03:37:18;;;;;;;5.30;1.73;;;6.50;99.90;;;;;;5096054;28;20044;-65
2023/12/04 03:39:45;;;;;;;5.70;1.60;;;6.50;99.90;;;;;;5096085;28;20494;-64
2023/12/04 03:42:11;;;;;;;4.75;1.60;;;6.50;99.90;;;;;;5095744;28;20044;-64
2023/12/04 03:44:38;;;;;;;4.88;1.48;;;6.50;99.90;;;;;;5095138;28;20127;-64
2023/12/04 03:47:05;;;;;;;4.47;1.45;;;6.50;99.90;;;;;;5095717;28;20040;-64
2023/12/04 03:49:32;;;;;;;3.83;1.70;;;6.40;99.90;;;;;;5077753;28;20491;-65
2023/12/04 03:51:58;;;;;;;5.32;1.42;;;6.50;99.90;;;;;;5095913;28;20048;-64
2023/12/04 03:54:25;;;;;;;6.70;1.83;;;6.40;99.90;;;;;;5094883;28;20040;-64
2023/12/04 03:56:52;;;;;;;3.85;1.90;;;6.50;99.90;;;;;;5095691;28;20044;-64
2023/12/04 03:59:19;;;;;;;5.40;1.67;;;6.50;99.90;;;;;;5095690;28;20051;-64
2023/12/04 04:01:45;;;;;;;6.38;1.85;;;6.50;99.90;;;;;;5095765;28;20542;-64
2023/12/04 04:04:12;;;;;;;6.05;1.52;;;6.50;99.90;;;;;;5095780;28;20478;-64
2023/12/04 04:06:39;;;;;;;5.38;1.60;;;6.50;99.90;;;;;;5095707;28;20094;-64
2023/12/04 04:09:06;;;;;;;4.88;1.67;;;6.50;99.90;;;;;;5095382;28;20048;-64
2023/12/04 04:11:33;;;;;;;3.83;1.70;;;6.60;99.90;;;;;;5095094;28;20048;-64
2023/12/04 04:13:59;;;;;;;7.88;1.85;;;6.50;99.90;;;;;;5094311;28;20071;-64
2023/12/04 04:16:26;;;;;;;4.10;1.58;;;6.60;99.90;;;;;;5095324;28;20047;-64
2023/12/04 04:18:53;;;;;;;3.80;1.80;;;6.60;99.90;;;;;;5095076;28;20461;-64
2023/12/04 04:21:20;;;;;;;4.70;1.83;;;6.50;99.90;;;;;;5093886;28;20036;-64
2023/12/04 04:23:47;;;;;;;4.75;1.60;;;6.60;99.90;;;;;;5095186;28;20071;-64
2023/12/04 04:26:13;;;;;;;3.47;1.35;;;6.60;99.90;;;;;;5094848;28;20442;-64
2023/12/04 04:28:40;;;;;;;5.70;1.88;;;6.60;99.90;;;;;;5093504;28;20074;-64
2023/12/04 04:31:07;;;;;;;6.00;2.05;;;6.60;99.90;;;;;;5094846;28;20040;-64
2023/12/04 04:33:34;;;;;;;13.32;1.85;;;6.60;99.90;;;;;;5094678;28;20051;-64
2023/12/04 04:36:01;;;;;;;9.40;1.85;;;6.60;99.90;;;;;;5094664;28;20032;-64
2023/12/04 04:38:27;;;;;;;5.63;2.25;;;6.60;99.90;;;;;;5094519;28;20040;-64
2023/12/04 04:40:54;;;;;;;6.70;2.35;;;6.60;99.90;;;;;;5094457;28;20044;-64
2023/12/04 04:43:21;;;;;;;5.68;2.10;;;6.60;99.90;;;;;;5094750;28;20046;-64
2023/12/04 04:45:48;;;;;;;8.70;2.28;;;6.50;99.90;;;;;;5094522;28;20101;-64
2023/12/04 04:48:14;;;;;;;6.30;2.10;;;6.50;99.90;;;;;;5094627;28;20553;-65
2023/12/04 04:50:41;;;;;;;5.93;2.08;;;6.50;99.90;;;;;;5094478;28;20040;-64
2023/12/04 04:53:08;;;;;;;5.88;2.03;;;6.50;99.90;;;;;;5094933;28;20457;-64
2023/12/04 04:55:35;;;;;;;7.32;2.25;;;6.50;99.90;;;;;;5094855;28;20531;-64
2023/12/04 04:58:14;;;;;;;6.07;1.92;;;6.50;99.90;;;;;;5093325;28;20417;-64
2023/12/04 05:00:41;;;;;;;7.25;2.00;;;6.50;99.90;;;;;;5094823;28;20032;-64
2023/12/04 05:03:08;;;;;;;7.60;2.13;;;6.50;99.90;;;;;;5094694;28;20469;-65
2023/12/04 05:05:35;;;;;;;5.55;2.00;;;6.50;99.90;;;;;;5094410;28;20043;-65
2023/12/04 05:08:02;;;;;;;4.85;1.95;;;6.50;99.90;;;;;;5093567;28;20058;-64
2023/12/04 05:10:29;;;;;;;5.38;2.13;;;6.50;99.90;;;;;;5094603;28;20043;-64
2023/12/04 05:12:56;;;;;;;5.22;1.92;;;6.50;99.90;;;;;;5093086;28;20383;-64
2023/12/04 05:15:22;;;;;;;6.10;2.47;;;6.50;99.90;;;;;;5094563;28;20044;-64
2023/12/04 05:17:51;;;;;;;7.55;2.20;;;6.50;99.90;;;;;;5094166;28;20040;-64
2023/12/04 05:20:17;;;;;;;7.13;2.00;;;6.50;99.90;;;;;;5094097;28;20047;-63
2023/12/04 05:22:44;;;;;;;7.40;2.28;;;6.50;99.90;;;;;;5094324;28;20047;-64
2023/12/04 05:25:11;;;;;;;7.30;2.40;;;6.50;99.90;;;;;;5094306;28;20051;-64
2023/12/04 05:27:38;;;;;;;7.13;2.35;;;6.50;99.90;;;;;;5094212;28;20059;-65
2023/12/04 05:30:05;;;;;;;8.55;2.00;;;6.50;99.90;;;;;;5093717;28;20119;-64
2023/12/04 05:32:32;;;;;;;6.88;2.17;;;6.50;99.90;;;;;;5092626;28;20044;-64
2023/12/04 05:34:59;;;;;;;3.47;1.73;;;6.50;99.90;;;;;;5094049;28;20178;-64
2023/12/04 05:37:25;;;;;;;5.57;1.48;;;6.50;99.90;;;;;;5093580;28;20065;-64
2023/12/04 05:39:52;;;;;;;4.50;1.77;;;6.50;99.90;;;;;;5093771;28;20032;-64
2023/12/04 05:42:19;;;;;;;4.68;1.65;;;6.50;99.90;;;;;;5093745;28;20052;-64
2023/12/04 05:44:46;;;;;;;4.18;1.50;;;6.60;99.90;;;;;;5094018;28;20046;-63
2023/12/04 05:47:14;;;;;;;4.82;1.60;;;6.60;99.90;;;;;;5094010;28;20040;-64
2023/12/04 05:49:41;;;;;;;5.68;1.85;;;6.60;99.90;;;;;;5093585;28;20050;-64
2023/12/04 05:52:08;;;;;;;5.68;1.70;;;6.60;99.90;;;;;;5093731;28;20055;-64
2023/12/04 05:54:34;;;;;;;4.47;2.00;;;6.60;99.90;;;;;;5093507;28;20032;-64
2023/12/04 05:57:01;;;;;;;7.35;1.92;;;6.60;99.90;;;;;;5093710;28;20197;-64
2023/12/04 05:59:28;;;;;;;3.92;1.58;;;6.60;99.90;;;;;;5093383;28;20059;-63
2023/12/04 06:01:55;;;;;;;3.25;1.48;;;6.60;99.90;;;;;;5093739;28;20500;-63
2023/12/04 06:04:21;;;;;;;5.60;1.60;;;6.70;99.90;;;;;;5093976;28;20044;-64
2023/12/04 06:06:48;;;;;;;6.93;1.70;;;6.70;99.90;;;;;;5093732;28;20029;-64
2023/12/04 06:09:16;;;;;;;5.47;1.73;;;6.70;99.90;;;;;;5093523;28;20044;-64
2023/12/04 06:11:43;;;;;;;5.10;1.48;;;6.70;99.90;;;;;;5093434;28;20040;-65
2023/12/04 06:14:13;;;;;;;2.65;1.30;;;6.70;99.90;;;;;;5093263;28;20040;-65
2023/12/04 06:16:40;;;;;;;3.03;1.60;;;6.70;99.90;;;;;;5092471;28;20048;-65
2023/12/04 06:19:06;;;;;;;4.97;1.20;;;6.70;99.90;;;;;;5095077;28;20059;-65
2023/12/04 06:21:33;;;;;;;5.60;1.50;;;6.70;99.90;;;;;;5097900;28;20129;-65
2023/12/04 06:24:00;;;;;;;4.75;1.38;;;6.70;99.90;;;;;;5096453;28;20043;-65
2023/12/04 06:26:30;;;;;;;3.40;1.48;;;6.70;99.90;;;;;;5097639;28;20040;-65
2023/12/04 06:28:57;;;;;;;3.33;1.25;;;6.70;99.90;;;;;;5097396;28;20127;-65
2023/12/04 06:31:23;;;;;;;6.20;1.90;;;6.70;99.90;;;;;;5097337;28;20040;-65
2023/12/04 06:33:50;;;;;;;4.70;1.90;;;6.60;99.90;;;;;;5097500;28;20044;-65
2023/12/04 06:36:17;;;;;;;6.65;1.88;;;6.70;99.90;;;;;;5097017;28;20477;-64
2023/12/04 06:38:44;;;;;;;3.13;1.45;;;6.70;99.90;;;;;;5097438;28;20384;-65
2023/12/04 06:41:10;;;;;;;3.42;1.48;;;6.70;99.90;;;;;;5096996;28;20718;-64
2023/12/04 06:43:37;;;;;;;2.63;1.38;;;6.70;99.90;;;;;;5097175;28;20051;-65
2023/12/04 06:46:04;;;;;;;3.72;1.42;;;6.70;99.90;;;;;;5095513;28;20415;-65
2023/12/04 06:48:31;;;;;;;4.28;1.38;;;6.70;99.90;;;;;;5096819;28;20115;-65
2023/12/04 06:50:57;;;;;;;5.57;1.48;;;6.70;99.90;;;;;;5097323;28;20415;-65
2023/12/04 06:53:24;;;;;;;2.75;1.48;;;6.70;99.90;;;;;;5097260;28;20489;-65
2023/12/04 06:55:51;;;;;;;3.08;1.33;;;6.70;99.90;;;;;;5096730;28;20032;-65
2023/12/04 06:58:18;;;;;;;4.95;1.60;;;6.70;99.90;;;;;;5097207;28;20064;-65
2023/12/04 07:00:45;;;;;;;4.88;1.92;;;6.70;99.90;;;;;;5095564;28;20477;-65
2023/12/04 07:03:11;;;;;;;5.05;1.77;;;6.70;99.90;;;;;;5095799;28;20059;-65
2023/12/04 07:05:38;;;;;;;2.88;1.30;;;6.70;99.90;;;;;;5096500;28;20044;-65
2023/12/04 07:08:05;;;;;;;6.85;1.90;;;6.70;99.90;;;;;;5095178;28;20471;-65
2023/12/04 07:10:32;;;;;;;4.05;1.63;;;6.70;99.90;;;;;;5096928;28;20044;-65
2023/12/04 07:13:01;;;;;;;5.80;1.73;;;6.70;99.90;;;;;;5096477;28;20040;-65
2023/12/04 07:15:28;;;;;;;5.50;2.05;;;6.70;99.90;;;;;;5096567;28;20086;-65
2023/12/04 07:17:54;;;;;;;5.57;1.75;;;6.80;99.90;;;;;;5096353;28;20044;-65
2023/12/04 07:20:23;;;;;;;6.13;1.92;;;6.70;99.90;;;;;;5095549;28;20041;-70
2023/12/04 07:22:51;;;;;;;5.07;1.95;;;6.70;99.90;;;;;;5096645;28;20098;-70
2023/12/04 07:25:18;;;;;;;5.90;1.60;;;6.80;99.90;;;;;;5096584;28;20068;-70
2023/12/04 07:27:45;;;;;;;3.97;1.95;;;6.80;99.90;;;;;;5096446;28;20048;-72
2023/12/04 07:30:12;;;;;;;4.15;1.70;;;6.80;99.90;;;;;;5094857;28;20545;-71
2023/12/04 07:32:43;;;;;;;5.88;2.00;;;6.80;99.90;;;;;;5078833;28;20544;-71
2023/12/04 07:35:10;;;;;;;2.75;1.70;;;6.80;99.90;;;;;;5096527;28;20040;-71
2023/12/04 07:37:36;;;;;;;5.20;1.80;;;6.80;99.90;;;;;;5096443;28;20040;-71
2023/12/04 07:40:05;;;;;;;5.38;2.10;;;6.80;99.90;;;;;;5078315;28;20040;-70
2023/12/04 07:42:32;;;;;;;4.28;1.90;;;6.80;99.90;;;;;;5096635;28;20105;-71
2023/12/04 07:44:59;;;;;;;6.78;2.80;;;6.80;99.90;;;;;;5096457;28;20051;-70
2023/12/04 07:47:26;;;;;;;5.00;2.15;;;6.90;99.90;;;;;;5096398;28;20040;-70
2023/12/04 07:49:52;;;;;;;6.07;2.05;;;6.90;99.90;;;;;;5095833;28;20036;-70
2023/12/04 07:52:19;;;;;;;7.90;2.28;;;6.90;99.90;;;;;;5095739;28;20070;-70
2023/12/04 07:54:47;;;;;;;6.32;2.25;;;6.90;99.90;;;;;;5095728;28;20118;-70
2023/12/04 07:57:14;;;;;;;4.72;2.00;;;6.80;99.90;;;;;;5096031;28;20044;-70
2023/12/04 07:59:42;;;;;;;5.22;2.50;;;6.90;99.90;;;;;;5087828;28;20033;-71
2023/12/04 08:02:09;;;;;;;5.18;2.20;;;6.90;99.90;;;;;;5074405;28;20068;-70
2023/12/04 08:04:36;;;;;;;7.93;2.50;;;6.90;99.90;;;;;;5075719;28;20040;-70
2023/12/04 08:07:03;;;;;;;4.32;1.90;;;6.90;99.90;;;;;;5073791;28;20040;-70
2023/12/04 08:09:29;;;;;;;5.05;2.20;;;6.80;99.90;;;;;;5075486;28;20079;-70
2023/12/04 08:11:56;;;;;;;7.93;2.55;;;6.90;99.90;;;;;;5075232;28;20070;-70
2023/12/04 08:14:23;;;;;;;3.65;2.10;;;6.90;99.90;;;;;;5074115;28;20047;-70
2023/12/04 08:16:50;;;;;;;3.28;2.00;;;6.90;99.90;;;;;;5073948;28;20128;-70
2023/12/04 08:19:17;;;;;;;5.20;3.08;;;6.90;99.90;;;;;;5074899;28;20032;-70
2023/12/04 08:21:44;;;;;;;4.03;1.83;;;6.90;99.90;;;;;;5075662;28;20115;-70
2023/12/04 08:24:10;;;;;;;4.78;2.55;;;6.90;99.90;;;;;;5075189;28;20079;-70
2023/12/04 08:26:37;;;;;;;5.30;2.58;;;6.90;99.90;;;;;;5074658;28;20135;-70
2023/12/04 08:29:04;;;;;;;5.22;2.17;;;7.00;99.90;;;;;;5074775;28;20485;-70
2023/12/04 08:31:31;;;;;;;5.38;2.15;;;7.00;99.90;;;;;;5074755;28;20123;-65
2023/12/04 08:33:57;;;;;;;5.53;1.80;;;7.00;99.90;;;;;;5074694;28;20123;-66
2023/12/04 08:36:24;;;;;;;3.83;1.80;;;7.10;99.90;;;;;;5074345;28;20036;-66
2023/12/04 08:38:51;;;;;;;5.32;1.58;;;7.10;99.90;;;;;;5074402;28;20060;-65
2023/12/04 08:41:18;;;;;;;4.57;1.83;;;7.20;99.90;;;;;;5073284;28;20490;-67
2023/12/04 08:43:45;;;;;;;4.85;2.00;;;7.20;99.90;;;;;;5073146;28;20028;-66
2023/12/04 08:46:12;;;;;;;4.38;1.70;;;7.20;99.90;;;;;;5087674;28;20089;-65
2023/12/04 08:48:38;;;;;;;5.60;1.63;;;7.30;99.90;;;;;;5076495;28;20042;-66
2023/12/04 08:51:05;;;;;;;4.47;1.77;;;7.30;99.90;;;;;;5072689;28;20055;-66
2023/12/04 08:53:32;;;;;;;4.80;1.52;;;7.30;99.90;;;;;;5074192;28;20040;-66
2023/12/04 08:55:59;;;;;;;3.25;1.60;;;7.30;99.90;;;;;;5074430;28;20033;-66
2023/12/04 08:58:26;;;;;;;4.03;1.75;;;7.40;99.90;;;;;;5074185;28;20045;-66
2023/12/04 09:00:52;;;;;;;3.28;1.90;;;7.40;99.90;;;;;;5074180;28;20051;-67
2023/12/04 09:03:20;;;;;;;4.15;1.70;;;7.40;99.90;;;;;;5074431;28;20043;-67
2023/12/04 09:05:57;;;;;;;3.47;1.88;;;7.40;99.90;;;;;;5074080;28;20675;-72
2023/12/04 09:08:27;;;;;;;2.92;1.90;;;7.40;99.90;;;;;;5073763;28;20400;-71
2023/12/04 09:11:04;;;;;;;7.32;1.63;;;7.40;99.90;;;;;;5073972;28;20485;-72
2023/12/04 09:13:49;;;;;;;7.00;2.00;;;7.40;99.90;;;;;;5074411;28;20045;-72
2023/12/04 09:16:15;;;;;;;4.28;1.70;;;7.40;99.90;;;;;;5073588;28;20497;-71
2023/12/04 09:18:42;;;;;;;4.18;2.10;;;7.30;99.90;;;;;;5073737;28;20032;-71
2023/12/04 09:21:09;;;;;;;5.53;1.88;;;7.40;99.90;;;;;;5073977;28;20481;-72
2023/12/04 09:23:36;;;;;;;3.20;1.80;;;7.40;99.90;;;;;;5073829;28;20115;-67
2023/12/04 09:26:03;;;;;;;4.13;1.85;;;7.40;99.90;;;;;;5073325;28;20094;-67
2023/12/04 09:28:30;;;;;;;4.57;2.28;;;7.40;99.90;;;;;;5073347;28;20114;-70
2023/12/04 09:30:56;;;;;;;4.05;2.30;;;7.40;99.90;;;;;;5072438;28;20040;-70
2023/12/04 09:33:23;;;;;;;3.47;1.80;;;7.40;99.90;;;;;;5073773;28;20054;-70
2023/12/04 09:35:50;;;;;;;3.63;2.15;;;7.50;99.90;;;;;;5073713;28;20115;-69
2023/12/04 09:38:17;;;;;;;3.35;1.80;;;7.50;99.90;;;;;;5073679;28;20107;-70
2023/12/04 09:40:44;;;;;;;4.47;1.92;;;7.50;99.90;;;;;;5073297;28;20048;-70
2023/12/04 09:43:11;;;;;;;3.15;1.70;;;7.50;99.90;;;;;;5074028;28;20436;-70
2023/12/04 09:45:37;;;;;;;3.72;1.85;;;7.50;99.90;;;;;;5073485;28;20045;-70
2023/12/04 09:48:04;;;;;;;4.75;2.00;;;7.50;99.90;;;;;;5073627;28;20048;-70
2023/12/04 09:50:31;;;;;;;4.35;1.83;;;7.50;99.90;;;;;;5072259;28;20040;-69
2023/12/04 09:52:59;;;;;;;3.22;1.70;;;7.60;99.90;;;;;;5073178;28;20044;-70
2023/12/04 09:55:25;;;;;;;5.53;1.80;;;7.50;99.90;;;;;;5073463;28;20036;-70
2023/12/04 09:57:53;;;;;;;5.75;1.90;;;7.60;99.90;;;;;;5073365;28;20047;-70
2023/12/04 10:00:19;;;;;;;2.95;2.00;;;7.60;99.90;;;;;;5073505;28;20028;-70
2023/12/04 10:02:46;;;;;;;4.85;1.90;;;7.60;99.90;;;;;;5073413;28;20465;-70
2023/12/04 10:05:13;;;;;;;4.10;1.80;;;7.60;99.90;;;;;;5073556;28;20508;-70
2023/12/04 10:07:40;;;;;;;3.65;1.67;;;7.60;99.90;;;;;;5073139;28;20436;-70
2023/12/04 10:10:08;;;;;;;3.63;2.10;;;7.60;99.90;;;;;;5071819;28;20033;-70
2023/12/04 10:12:34;;;;;;;3.28;1.70;;;7.70;99.90;;;;;;5071865;28;20144;-70
2023/12/04 10:15:01;;;;;;;7.50;2.08;;;7.70;99.90;;;;;;5073279;28;20048;-71
2023/12/04 10:17:28;;;;;;;4.32;2.33;;;7.70;99.90;;;;;;5073138;28;20528;-71
2023/12/04 10:19:55;;;;;;;4.68;1.98;;;7.70;99.90;;;;;;5072668;28;20067;-68
2023/12/04 10:22:22;;;;;;;7.82;2.10;;;7.70;99.90;;;;;;5072932;28;20493;-71
2023/12/04 10:24:49;;;;;;;7.10;2.05;;;7.80;99.90;;;;;;5073218;28;20359;-70
2023/12/04 10:27:17;;;;;;;4.38;2.17;;;7.80;99.90;;;;;;5072236;28;20048;-71
2023/12/04 10:29:45;;;;;;;4.72;2.28;;;7.80;99.90;;;;;;5073055;28;20044;-71
2023/12/04 10:32:12;;;;;;;5.13;2.05;;;7.80;99.90;;;;;;5072866;28;20550;-71
2023/12/04 10:34:39;;;;;;;5.75;2.13;;;7.80;99.90;;;;;;5073130;28;20042;-67
2023/12/04 10:37:06;;;;;;;5.53;2.38;;;7.80;99.90;;;;;;5073450;28;20059;-66
2023/12/04 10:39:34;;;;;;;4.45;2.10;;;7.80;99.90;;;;;;5073163;28;20037;-67
2023/12/04 10:42:02;;;;;;;6.82;2.40;;;7.80;99.90;;;;;;5072952;28;20102;-67
2023/12/04 10:44:29;;;;;;;8.88;3.92;;;7.80;99.90;;;;;;5067502;28;20052;-67
2023/12/04 10:46:57;;;;;;;4.78;2.03;;;7.80;99.90;;;;;;5093322;28;20043;-71
2023/12/04 10:49:24;;;;;;;7.63;2.30;;;7.90;99.90;;;;;;5075277;28;20047;-71
2023/12/04 10:51:52;;;;;;;5.78;2.15;;;7.80;99.90;;;;;;5088676;28;20126;-71
2023/12/04 10:54:18;;;;;;;6.72;2.50;;;7.90;99.90;;;;;;5092011;28;20040;-71
2023/12/04 10:56:45;;;;;;;6.07;2.38;;;7.90;99.90;;;;;;5091654;28;20042;-70
2023/12/04 10:59:12;;;;;;;5.35;2.60;;;7.90;99.90;;;;;;5092257;28;20048;-70
2023/12/04 11:01:39;;;;;;;6.38;2.35;;;8.00;99.90;;;;;;5086462;28;20043;-71
2023/12/04 11:04:07;;;;;;;4.65;2.47;;;8.00;99.90;;;;;;5093692;28;20059;-71
2023/12/04 11:06:34;;;;;;;6.40;2.28;;;8.00;99.90;;;;;;5094003;28;20551;-71
2023/12/04 11:09:00;;;;;;;8.90;2.47;;;8.10;99.90;;;;;;5095543;28;20044;-71
2023/12/04 11:11:27;;;;;;;7.78;2.70;;;8.10;99.90;;;;;;5086106;28;20090;-69
2023/12/04 11:13:54;;;;;;;6.53;2.80;;;8.10;99.90;;;;;;5076221;28;20045;-69
2023/12/04 11:16:21;;;;;;;8.35;2.65;;;8.10;99.90;;;;;;5084276;28;20495;-71
2023/12/04 11:18:48;;;;;;;6.78;2.83;;;8.10;99.90;;;;;;5095589;28;20064;-69
2023/12/04 11:21:15;;;;;;;5.93;2.20;;;8.10;99.90;;;;;;5094357;28;20040;-69
2023/12/04 11:23:41;;;;;;;8.68;2.70;;;8.20;99.90;;;;;;5095792;28;20036;-69
2023/12/04 11:26:08;;;;;;;7.20;2.35;;;8.30;99.90;;;;;;5095505;28;20119;-70
2023/12/04 11:28:37;;;;;;;10.18;2.50;;;8.30;99.90;;;;;;5092991;28;20046;-71
2023/12/04 11:31:05;;;;;;;6.43;2.20;;;8.30;99.90;;;;;;5087576;28;20040;-71
2023/12/04 11:33:31;;;;;;;5.28;2.20;;;8.40;99.90;;;;;;5076148;28;20436;-69
2023/12/04 11:35:58;;;;;;;6.78;2.28;;;8.30;99.90;;;;;;5075958;28;20068;-65
2023/12/04 11:38:25;;;;;;;9.27;2.95;;;8.30;99.90;;;;;;5076046;28;20036;-65
2023/12/04 11:40:53;;;;;;;6.80;2.30;;;8.30;99.90;;;;;;5094983;28;20055;-65
2023/12/04 11:43:20;;;;;;;8.13;2.30;;;8.30;99.90;;;;;;5095254;28;20480;-65
2023/12/04 11:45:46;;;;;;;8.70;2.90;;;8.40;99.90;;;;;;5088914;28;20119;-66
2023/12/04 11:48:13;;;;;;;5.80;2.38;;;8.30;99.90;;;;;;5095071;28;20043;-66
2023/12/04 11:50:40;;;;;;;11.38;2.67;;;8.30;99.90;;;;;;5089789;28;20477;-65
2023/12/04 11:53:07;;;;;;;6.00;1.88;;;8.30;99.90;;;;;;5095244;28;20093;-65
2023/12/04 11:55:34;;;;;;;4.72;2.38;;;8.30;99.90;;;;;;5075395;28;20067;-66
2023/12/04 11:58:01;;;;;;;6.28;2.20;;;8.30;99.90;;;;;;5075238;28;20037;-65
2023/12/04 12:00:27;;;;;;;6.43;2.33;;;8.30;99.90;;;;;;5081379;28;20393;-65
2023/12/04 12:02:54;;;;;;;7.97;1.98;;;8.30;99.90;;;;;;5088097;28;20118;-66
2023/12/04 12:05:41;;;;;;;7.03;2.47;;;8.30;99.90;;;;;;5094854;28;20029;-65
2023/12/04 12:08:09;;;;;;;7.07;2.45;;;8.30;99.90;;;;;;5094649;28;20090;-65
2023/12/04 12:10:36;;;;;;;6.07;2.28;;;8.30;99.90;;;;;;5094513;28;20468;-65
2023/12/04 12:13:02;;;;;;;5.60;2.40;;;8.30;99.90;;;;;;5094712;28;20047;-65
2023/12/04 12:15:29;;;;;;;7.18;2.83;;;8.30;99.90;;;;;;5094091;28;20048;-66
2023/12/04 12:17:56;;;;;;;6.80;3.08;;;8.30;99.90;;;;;;5094541;28;20051;-67
2023/12/04 12:20:23;;;;;;;5.30;2.78;;;8.30;99.90;;;;;;5094565;28;20085;-66
2023/12/04 12:22:50;;;;;;;7.15;2.20;;;8.30;99.90;;;;;;5094459;28;20507;-66
2023/12/04 12:25:18;;;;;;;6.97;2.70;;;8.30;99.90;;;;;;5094570;28;20048;-66
2023/12/04 12:27:44;;;;;;;6.68;2.80;;;8.30;99.90;;;;;;5094502;28;20040;-66
2023/12/04 12:30:11;;;;;;;7.22;2.63;;;8.30;99.90;;;;;;5094116;28;20401;-66
2023/12/04 12:32:38;;;;;;;9.07;3.03;;;8.20;99.90;;;;;;5094490;28;20051;-66
2023/12/04 12:35:08;;;;;;;6.68;3.35;;;8.30;99.90;;;;;;5094222;28;20036;-66
2023/12/04 12:37:35;;;;;;;7.00;2.42;;;8.30;99.90;;;;;;5094142;28;20040;-66
2023/12/04 12:40:04;;;;;;;7.50;2.47;;;8.30;99.90;;;;;;5079455;28;20408;-70
2023/12/04 12:42:33;;;;;;;7.43;2.67;;;8.30;99.90;;;;;;5074536;28;20044;-70
2023/12/04 12:45:00;;;;;;;7.97;2.42;;;8.30;99.90;;;;;;5074411;28;20477;-70
2023/12/04 12:47:26;;;;;;;7.63;2.13;;;8.30;99.90;;;;;;5074751;28;20047;-70
2023/12/04 12:49:54;;;;;;;7.43;2.47;;;8.30;99.90;;;;;;5074412;28;20040;-70
2023/12/04 12:52:20;;;;;;;4.63;2.25;;;8.20;99.90;;;;;;5074592;28;20462;-69
2023/12/04 12:54:47;;;;;;;6.55;2.40;;;8.20;99.90;;;;;;5074079;28;20048;-70